sensor_id;sensor_type;location;lat;lon;timestamp;P1;durP1;ratioP1;P2;durP2;ratioP2
79241;SDS011;68670;48.720;9.118;2023-04-08T00:03:22;157.35;;;30.80;;
79241;SDS011;68670;48.720;9.118;2023-04-08T00:08:12;155.57;;;38.50;;
79241;SDS011;68670;48.720;9.118;2023-04-08T00:10:40;164.02;;;44.30;;
79241;SDS011;68670;48.720;9.118;2023-04-08T00:15:33;159.50;;;33.88;;
79241;SDS011;68670;48.720;9.118;2023-04-08T00:20:26;134.07;;;28.47;;
79241;SDS011;68670;48.720;9.118;2023-04-08T00:22:56;148.88;;;31.30;;
79241;SDS011;68670;48.720;9.118;2023-04-08T00:27:47;160.45;;;33.45;;
79241;SDS011;68670;48.720;9.118;2023-04-08T00:30:12;143.50;;;28.75;;
79241;SDS011;68670;48.720;9.118;2023-04-08T00:32:39;147.45;;;34.42;;
79241;SDS011;68670;48.720;9.118;2023-04-08T00:37:34;155.07;;;35.45;;
79241;SDS011;68670;48.720;9.118;2023-04-08T00:40:05;157.25;;;41.38;;
79241;SDS011;68670;48.720;9.118;2023-04-08T00:44:56;144.67;;;37.30;;
79241;SDS011;68670;48.720;9.118;2023-04-08T00:47:21;154.15;;;48.22;;
79241;SDS011;68670;48.720;9.118;2023-04-08T00:49:50;145.73;;;52.33;;
79241;SDS011;68670;48.720;9.118;2023-04-08T00:52:15;159.40;;;51.10;;
79241;SDS011;68670;48.720;9.118;2023-04-08T00:54:43;141.15;;;29.67;;
79241;SDS011;68670;48.720;9.118;2023-04-08T00:59:36;127.53;;;27.80;;
79241;SDS011;68670;48.720;9.118;2023-04-08T01:02:14;144.93;;;31.75;;
79241;SDS011;68670;48.720;9.118;2023-04-08T01:04:49;143.68;;;28.60;;
79241;SDS011;68670;48.720;9.118;2023-04-08T01:07:35;127.65;;;26.92;;
79241;SDS011;68670;48.720;9.118;2023-04-08T01:10:12;134.80;;;25.90;;
79241;SDS011;68670;48.720;9.118;2023-04-08T01:12:47;143.02;;;28.33;;
79241;SDS011;68670;48.720;9.118;2023-04-08T01:15:18;119.18;;;28.10;;
79241;SDS011;68670;48.720;9.118;2023-04-08T01:17:44;136.68;;;27.35;;
79241;SDS011;68670;48.720;9.118;2023-04-08T01:20:13;145.52;;;26.30;;
79241;SDS011;68670;48.720;9.118;2023-04-08T01:22:45;123.95;;;25.17;;
79241;SDS011;68670;48.720;9.118;2023-04-08T01:25:30;131.60;;;27.27;;
79241;SDS011;68670;48.720;9.118;2023-04-08T01:27:59;112.55;;;25.38;;
79241;SDS011;68670;48.720;9.118;2023-04-08T01:30:28;118.68;;;26.33;;
79241;SDS011;68670;48.720;9.118;2023-04-08T01:32:54;116.90;;;24.85;;
79241;SDS011;68670;48.720;9.118;2023-04-08T01:35:23;123.75;;;24.90;;
79241;SDS011;68670;48.720;9.118;2023-04-08T01:40:17;116.90;;;23.98;;
79241;SDS011;68670;48.720;9.118;2023-04-08T01:42:46;127.22;;;26.10;;
79241;SDS011;68670;48.720;9.118;2023-04-08T01:45:12;119.25;;;25.23;;
79241;SDS011;68670;48.720;9.118;2023-04-08T01:47:39;119.95;;;22.90;;
79241;SDS011;68670;48.720;9.118;2023-04-08T01:50:08;119.90;;;27.00;;
79241;SDS011;68670;48.720;9.118;2023-04-08T01:55:01;126.90;;;24.90;;
79241;SDS011;68670;48.720;9.118;2023-04-08T01:57:30;112.22;;;25.05;;
79241;SDS011;68670;48.720;9.118;2023-04-08T02:00:04;117.55;;;25.48;;
79241;SDS011;68670;48.720;9.118;2023-04-08T02:02:31;124.88;;;23.92;;
79241;SDS011;68670;48.720;9.118;2023-04-08T02:04:59;111.60;;;24.27;;
79241;SDS011;68670;48.720;9.118;2023-04-08T02:09:52;123.28;;;25.17;;
79241;SDS011;68670;48.720;9.118;2023-04-08T02:14:45;121.72;;;25.20;;
79241;SDS011;68670;48.720;9.118;2023-04-08T02:17:11;134.30;;;27.85;;
79241;SDS011;68670;48.720;9.118;2023-04-08T02:22:17;126.53;;;26.60;;
79241;SDS011;68670;48.720;9.118;2023-04-08T02:24:49;122.25;;;25.20;;
79241;SDS011;68670;48.720;9.118;2023-04-08T02:29:43;139.05;;;26.05;;
79241;SDS011;68670;48.720;9.118;2023-04-08T02:32:10;152.15;;;30.27;;
79241;SDS011;68670;48.720;9.118;2023-04-08T02:34:39;132.85;;;27.15;;
79241;SDS011;68670;48.720;9.118;2023-04-08T02:37:06;126.45;;;28.38;;
79241;SDS011;68670;48.720;9.118;2023-04-08T02:39:32;121.25;;;25.95;;
79241;SDS011;68670;48.720;9.118;2023-04-08T02:44:25;147.75;;;26.23;;
79241;SDS011;68670;48.720;9.118;2023-04-08T02:49:16;141.83;;;25.27;;
79241;SDS011;68670;48.720;9.118;2023-04-08T02:54:06;122.33;;;32.47;;
79241;SDS011;68670;48.720;9.118;2023-04-08T02:56:34;159.68;;;33.55;;
79241;SDS011;68670;48.720;9.118;2023-04-08T02:59:00;153.85;;;37.33;;
79241;SDS011;68670;48.720;9.118;2023-04-08T03:03:52;153.27;;;32.17;;
79241;SDS011;68670;48.720;9.118;2023-04-08T03:08:43;156.83;;;28.70;;
79241;SDS011;68670;48.720;9.118;2023-04-08T03:11:08;145.27;;;31.63;;
79241;SDS011;68670;48.720;9.118;2023-04-08T03:15:59;169.05;;;35.53;;
79241;SDS011;68670;48.720;9.118;2023-04-08T03:18:25;156.25;;;30.83;;
79241;SDS011;68670;48.720;9.118;2023-04-08T03:23:15;175.50;;;31.83;;
79241;SDS011;68670;48.720;9.118;2023-04-08T03:28:06;174.18;;;31.33;;
79241;SDS011;68670;48.720;9.118;2023-04-08T03:32:57;165.65;;;29.25;;
79241;SDS011;68670;48.720;9.118;2023-04-08T03:37:47;150.20;;;26.27;;
79241;SDS011;68670;48.720;9.118;2023-04-08T03:40:15;179.02;;;29.58;;
79241;SDS011;68670;48.720;9.118;2023-04-08T03:45:08;167.80;;;29.60;;
79241;SDS011;68670;48.720;9.118;2023-04-08T03:49:58;121.97;;;23.17;;
79241;SDS011;68670;48.720;9.118;2023-04-08T03:52:24;159.23;;;30.63;;
79241;SDS011;68670;48.720;9.118;2023-04-08T03:57:14;142.00;;;25.65;;
79241;SDS011;68670;48.720;9.118;2023-04-08T04:02:05;159.83;;;24.37;;
79241;SDS011;68670;48.720;9.118;2023-04-08T04:04:33;180.82;;;32.38;;
79241;SDS011;68670;48.720;9.118;2023-04-08T04:07:01;166.07;;;30.63;;
79241;SDS011;68670;48.720;9.118;2023-04-08T04:11:51;151.25;;;27.60;;
79241;SDS011;68670;48.720;9.118;2023-04-08T04:16:42;132.90;;;25.80;;
79241;SDS011;68670;48.720;9.118;2023-04-08T04:21:35;128.77;;;23.23;;
79241;SDS011;68670;48.720;9.118;2023-04-08T04:24:00;178.35;;;29.02;;
79241;SDS011;68670;48.720;9.118;2023-04-08T04:28:51;154.40;;;24.83;;
79241;SDS011;68670;48.720;9.118;2023-04-08T04:33:42;111.97;;;22.05;;
79241;SDS011;68670;48.720;9.118;2023-04-08T04:36:07;152.07;;;28.30;;
79241;SDS011;68670;48.720;9.118;2023-04-08T04:38:33;174.75;;;33.22;;
79241;SDS011;68670;48.720;9.118;2023-04-08T04:40:58;147.90;;;28.73;;
79241;SDS011;68670;48.720;9.118;2023-04-08T04:43:24;162.00;;;27.95;;
79241;SDS011;68670;48.720;9.118;2023-04-08T04:48:15;133.23;;;26.63;;
79241;SDS011;68670;48.720;9.118;2023-04-08T04:53:06;139.53;;;25.67;;
79241;SDS011;68670;48.720;9.118;2023-04-08T04:55:33;165.98;;;30.98;;
79241;SDS011;68670;48.720;9.118;2023-04-08T05:00:24;121.40;;;26.67;;
79241;SDS011;68670;48.720;9.118;2023-04-08T05:05:14;118.97;;;25.63;;
79241;SDS011;68670;48.720;9.118;2023-04-08T05:07:42;190.68;;;34.70;;
79241;SDS011;68670;48.720;9.118;2023-04-08T05:12:33;126.28;;;25.23;;
79241;SDS011;68670;48.720;9.118;2023-04-08T05:17:23;135.97;;;24.23;;
79241;SDS011;68670;48.720;9.118;2023-04-08T05:19:51;190.07;;;31.17;;
79241;SDS011;68670;48.720;9.118;2023-04-08T05:24:42;127.30;;;25.70;;
79241;SDS011;68670;48.720;9.118;2023-04-08T05:29:35;137.40;;;28.05;;
79241;SDS011;68670;48.720;9.118;2023-04-08T05:32:00;184.40;;;34.88;;
79241;SDS011;68670;48.720;9.118;2023-04-08T05:36:51;137.47;;;26.00;;
79241;SDS011;68670;48.720;9.118;2023-04-08T05:41:44;132.30;;;26.83;;
79241;SDS011;68670;48.720;9.118;2023-04-08T05:46:38;107.65;;;22.70;;
79241;SDS011;68670;48.720;9.118;2023-04-08T05:49:04;185.73;;;34.28;;
79241;SDS011;68670;48.720;9.118;2023-04-08T05:51:29;185.52;;;33.25;;
79241;SDS011;68670;48.720;9.118;2023-04-08T05:56:20;126.38;;;25.75;;
79241;SDS011;68670;48.720;9.118;2023-04-08T06:01:11;91.30;;;22.05;;
79241;SDS011;68670;48.720;9.118;2023-04-08T06:06:02;94.47;;;23.07;;
79241;SDS011;68670;48.720;9.118;2023-04-08T06:10:52;88.37;;;21.40;;
79241;SDS011;68670;48.720;9.118;2023-04-08T06:15:44;92.25;;;23.15;;
79241;SDS011;68670;48.720;9.118;2023-04-08T06:18:12;106.03;;;25.38;;
79241;SDS011;68670;48.720;9.118;2023-04-08T06:20:38;162.55;;;32.80;;
79241;SDS011;68670;48.720;9.118;2023-04-08T06:25:29;151.80;;;30.58;;
79241;SDS011;68670;48.720;9.118;2023-04-08T06:27:57;137.57;;;30.90;;
79241;SDS011;68670;48.720;9.118;2023-04-08T06:32:47;168.87;;;32.30;;
79241;SDS011;68670;48.720;9.118;2023-04-08T06:37:41;143.10;;;30.35;;
79241;SDS011;68670;48.720;9.118;2023-04-08T06:40:06;169.25;;;32.00;;
79241;SDS011;68670;48.720;9.118;2023-04-08T06:45:02;151.65;;;33.10;;
79241;SDS011;68670;48.720;9.118;2023-04-08T06:47:28;152.05;;;30.88;;
79241;SDS011;68670;48.720;9.118;2023-04-08T06:52:21;166.27;;;30.08;;
79241;SDS011;68670;48.720;9.118;2023-04-08T06:57:11;147.47;;;27.90;;
79241;SDS011;68670;48.720;9.118;2023-04-08T06:59:39;150.98;;;32.08;;
79241;SDS011;68670;48.720;9.118;2023-04-08T07:04:30;131.10;;;26.75;;
79241;SDS011;68670;48.720;9.118;2023-04-08T07:06:57;117.18;;;25.42;;
79241;SDS011;68670;48.720;9.118;2023-04-08T07:11:50;111.47;;;26.27;;
79241;SDS011;68670;48.720;9.118;2023-04-08T07:16:41;106.22;;;23.60;;
79241;SDS011;68670;48.720;9.118;2023-04-08T07:21:34;109.75;;;21.77;;
79241;SDS011;68670;48.720;9.118;2023-04-08T07:26:25;144.50;;;28.87;;
79241;SDS011;68670;48.720;9.118;2023-04-08T07:28:54;134.38;;;26.80;;
79241;SDS011;68670;48.720;9.118;2023-04-08T07:31:19;116.03;;;26.27;;
79241;SDS011;68670;48.720;9.118;2023-04-08T07:36:13;124.85;;;24.90;;
79241;SDS011;68670;48.720;9.118;2023-04-08T07:38:39;136.52;;;29.60;;
79241;SDS011;68670;48.720;9.118;2023-04-08T07:43:30;124.65;;;26.90;;
79241;SDS011;68670;48.720;9.118;2023-04-08T07:46:01;146.32;;;29.83;;
79241;SDS011;68670;48.720;9.118;2023-04-08T07:48:27;128.68;;;30.55;;
79241;SDS011;68670;48.720;9.118;2023-04-08T07:50:54;145.55;;;29.65;;
79241;SDS011;68670;48.720;9.118;2023-04-08T07:55:47;145.15;;;30.25;;
79241;SDS011;68670;48.720;9.118;2023-04-08T08:00:37;124.27;;;27.57;;
79241;SDS011;68670;48.720;9.118;2023-04-08T08:03:04;132.23;;;27.98;;
79241;SDS011;68670;48.720;9.118;2023-04-08T08:05:32;111.95;;;27.92;;
79241;SDS011;68670;48.720;9.118;2023-04-08T08:10:25;318.77;;;64.13;;
79241;SDS011;68670;48.720;9.118;2023-04-08T08:12:51;161.48;;;33.00;;
79241;SDS011;68670;48.720;9.118;2023-04-08T08:17:42;142.43;;;29.75;;
79241;SDS011;68670;48.720;9.118;2023-04-08T08:20:07;147.57;;;32.80;;
79241;SDS011;68670;48.720;9.118;2023-04-08T08:22:35;142.43;;;33.08;;
79241;SDS011;68670;48.720;9.118;2023-04-08T08:25:03;137.20;;;33.58;;
79241;SDS011;68670;48.720;9.118;2023-04-08T08:27:31;131.93;;;32.42;;
79241;SDS011;68670;48.720;9.118;2023-04-08T08:30:00;127.05;;;30.05;;
79241;SDS011;68670;48.720;9.118;2023-04-08T08:32:28;138.32;;;29.38;;
79241;SDS011;68670;48.720;9.118;2023-04-08T08:34:54;126.88;;;31.65;;
79241;SDS011;68670;48.720;9.118;2023-04-08T08:37:19;132.95;;;32.95;;
79241;SDS011;68670;48.720;9.118;2023-04-08T08:39:47;139.57;;;34.65;;
79241;SDS011;68670;48.720;9.118;2023-04-08T08:42:19;132.50;;;33.55;;
79241;SDS011;68670;48.720;9.118;2023-04-08T08:44:45;130.98;;;32.55;;
79241;SDS011;68670;48.720;9.118;2023-04-08T08:47:11;145.38;;;34.42;;
79241;SDS011;68670;48.720;9.118;2023-04-08T08:49:39;136.35;;;30.20;;
79241;SDS011;68670;48.720;9.118;2023-04-08T08:52:05;144.80;;;32.83;;
79241;SDS011;68670;48.720;9.118;2023-04-08T08:54:30;141.00;;;33.58;;
79241;SDS011;68670;48.720;9.118;2023-04-08T08:56:56;122.65;;;32.90;;
79241;SDS011;68670;48.720;9.118;2023-04-08T08:59:21;132.00;;;33.42;;
79241;SDS011;68670;48.720;9.118;2023-04-08T09:01:49;121.72;;;31.88;;
79241;SDS011;68670;48.720;9.118;2023-04-08T09:06:44;127.50;;;33.05;;
79241;SDS011;68670;48.720;9.118;2023-04-08T09:09:13;135.95;;;35.92;;
79241;SDS011;68670;48.720;9.118;2023-04-08T09:11:40;132.38;;;34.20;;
79241;SDS011;68670;48.720;9.118;2023-04-08T09:14:24;126.22;;;31.65;;
79241;SDS011;68670;48.720;9.118;2023-04-08T09:16:52;131.68;;;33.03;;
79241;SDS011;68670;48.720;9.118;2023-04-08T09:19:17;115.97;;;32.75;;
79241;SDS011;68670;48.720;9.118;2023-04-08T09:21:43;134.85;;;33.83;;
79241;SDS011;68670;48.720;9.118;2023-04-08T09:24:09;131.50;;;32.78;;
79241;SDS011;68670;48.720;9.118;2023-04-08T09:26:51;119.13;;;30.30;;
79241;SDS011;68670;48.720;9.118;2023-04-08T09:29:20;122.28;;;32.65;;
79241;SDS011;68670;48.720;9.118;2023-04-08T09:31:48;118.32;;;31.83;;
79241;SDS011;68670;48.720;9.118;2023-04-08T09:34:17;131.00;;;33.63;;
79241;SDS011;68670;48.720;9.118;2023-04-08T09:36:47;114.57;;;34.17;;
79241;SDS011;68670;48.720;9.118;2023-04-08T09:39:15;124.75;;;35.15;;
79241;SDS011;68670;48.720;9.118;2023-04-08T09:41:41;138.45;;;35.17;;
79241;SDS011;68670;48.720;9.118;2023-04-08T09:44:10;120.05;;;31.48;;
79241;SDS011;68670;48.720;9.118;2023-04-08T09:46:39;136.73;;;36.38;;
79241;SDS011;68670;48.720;9.118;2023-04-08T10:00:17;131.40;;;34.60;;
79241;SDS011;68670;48.720;9.118;2023-04-08T10:05:30;129.07;;;34.92;;
79241;SDS011;68670;48.720;9.118;2023-04-08T10:07:57;107.97;;;31.63;;
79241;SDS011;68670;48.720;9.118;2023-04-08T10:10:23;114.65;;;30.23;;
79241;SDS011;68670;48.720;9.118;2023-04-08T10:12:49;118.85;;;32.47;;
79241;SDS011;68670;48.720;9.118;2023-04-08T10:23:00;127.15;;;35.35;;
79241;SDS011;68670;48.720;9.118;2023-04-08T10:25:29;106.80;;;31.85;;
79241;SDS011;68670;48.720;9.118;2023-04-08T10:30:46;114.90;;;31.83;;
79241;SDS011;68670;48.720;9.118;2023-04-08T10:33:16;114.75;;;32.58;;
79241;SDS011;68670;48.720;9.118;2023-04-08T10:36:31;111.03;;;31.85;;
79241;SDS011;68670;48.720;9.118;2023-04-08T10:38:33;114.38;;;32.25;;
79241;SDS011;68670;48.720;9.118;2023-04-08T10:41:01;118.35;;;34.83;;
79241;SDS011;68670;48.720;9.118;2023-04-08T10:43:32;100.07;;;32.13;;
79241;SDS011;68670;48.720;9.118;2023-04-08T10:46:01;129.93;;;33.50;;
79241;SDS011;68670;48.720;9.118;2023-04-08T10:48:30;119.40;;;33.10;;
79241;SDS011;68670;48.720;9.118;2023-04-08T10:50:59;122.15;;;31.38;;
79241;SDS011;68670;48.720;9.118;2023-04-08T10:53:31;119.18;;;33.78;;
79241;SDS011;68670;48.720;9.118;2023-04-08T10:58:34;121.60;;;36.38;;
79241;SDS011;68670;48.720;9.118;2023-04-08T11:01:04;121.68;;;34.65;;
79241;SDS011;68670;48.720;9.118;2023-04-08T11:03:31;135.95;;;33.58;;
79241;SDS011;68670;48.720;9.118;2023-04-08T11:06:00;130.75;;;35.47;;
79241;SDS011;68670;48.720;9.118;2023-04-08T11:08:30;115.00;;;33.95;;
79241;SDS011;68670;48.720;9.118;2023-04-08T11:10:59;118.07;;;34.70;;
79241;SDS011;68670;48.720;9.118;2023-04-08T11:13:29;122.75;;;34.60;;
79241;SDS011;68670;48.720;9.118;2023-04-08T11:15:55;131.90;;;35.17;;
79241;SDS011;68670;48.720;9.118;2023-04-08T11:18:22;123.43;;;36.75;;
79241;SDS011;68670;48.720;9.118;2023-04-08T11:20:49;122.60;;;35.13;;
79241;SDS011;68670;48.720;9.118;2023-04-08T11:23:15;130.38;;;34.58;;
79241;SDS011;68670;48.720;9.118;2023-04-08T11:25:44;124.85;;;32.65;;
79241;SDS011;68670;48.720;9.118;2023-04-08T11:28:12;132.98;;;32.97;;
79241;SDS011;68670;48.720;9.118;2023-04-08T11:30:41;127.20;;;34.40;;
79241;SDS011;68670;48.720;9.118;2023-04-08T11:33:06;108.22;;;34.97;;
79241;SDS011;68670;48.720;9.118;2023-04-08T11:35:32;133.73;;;35.85;;
79241;SDS011;68670;48.720;9.118;2023-04-08T11:37:58;126.18;;;35.25;;
79241;SDS011;68670;48.720;9.118;2023-04-08T11:40:25;130.77;;;35.08;;
79241;SDS011;68670;48.720;9.118;2023-04-08T11:42:53;143.50;;;38.03;;
79241;SDS011;68670;48.720;9.118;2023-04-08T11:45:19;133.52;;;38.90;;
79241;SDS011;68670;48.720;9.118;2023-04-08T11:47:46;139.73;;;42.50;;
79241;SDS011;68670;48.720;9.118;2023-04-08T11:50:23;126.78;;;35.80;;
79241;SDS011;68670;48.720;9.118;2023-04-08T11:52:49;125.05;;;39.95;;
79241;SDS011;68670;48.720;9.118;2023-04-08T11:55:29;129.93;;;37.60;;
79241;SDS011;68670;48.720;9.118;2023-04-08T11:57:55;112.53;;;40.03;;
79241;SDS011;68670;48.720;9.118;2023-04-08T12:00:26;133.95;;;42.67;;
79241;SDS011;68670;48.720;9.118;2023-04-08T12:02:55;132.45;;;41.30;;
79241;SDS011;68670;48.720;9.118;2023-04-08T12:05:21;117.90;;;37.47;;
79241;SDS011;68670;48.720;9.118;2023-04-08T12:07:46;128.55;;;38.17;;
79241;SDS011;68670;48.720;9.118;2023-04-08T12:10:17;131.65;;;38.47;;
79241;SDS011;68670;48.720;9.118;2023-04-08T12:12:42;120.03;;;34.10;;
79241;SDS011;68670;48.720;9.118;2023-04-08T12:15:07;149.23;;;40.65;;
79241;SDS011;68670;48.720;9.118;2023-04-08T12:17:36;140.80;;;39.05;;
79241;SDS011;68670;48.720;9.118;2023-04-08T12:20:07;127.50;;;35.97;;
79241;SDS011;68670;48.720;9.118;2023-04-08T12:22:37;144.07;;;35.90;;
79241;SDS011;68670;48.720;9.118;2023-04-08T12:25:02;137.13;;;38.30;;
79241;SDS011;68670;48.720;9.118;2023-04-08T12:27:30;121.38;;;36.90;;
79241;SDS011;68670;48.720;9.118;2023-04-08T12:30:02;130.65;;;38.67;;
79241;SDS011;68670;48.720;9.118;2023-04-08T12:32:27;121.20;;;34.22;;
79241;SDS011;68670;48.720;9.118;2023-04-08T12:34:53;125.35;;;38.83;;
79241;SDS011;68670;48.720;9.118;2023-04-08T12:37:21;151.55;;;39.97;;
79241;SDS011;68670;48.720;9.118;2023-04-08T12:39:46;132.55;;;35.53;;
79241;SDS011;68670;48.720;9.118;2023-04-08T12:42:14;138.70;;;38.90;;
79241;SDS011;68670;48.720;9.118;2023-04-08T12:44:39;128.23;;;38.50;;
79241;SDS011;68670;48.720;9.118;2023-04-08T12:47:04;136.35;;;37.42;;
79241;SDS011;68670;48.720;9.118;2023-04-08T12:49:32;122.85;;;37.25;;
79241;SDS011;68670;48.720;9.118;2023-04-08T12:51:57;134.55;;;38.10;;
79241;SDS011;68670;48.720;9.118;2023-04-08T12:54:23;130.07;;;35.65;;
79241;SDS011;68670;48.720;9.118;2023-04-08T12:56:48;134.05;;;38.97;;
79241;SDS011;68670;48.720;9.118;2023-04-08T12:59:14;139.13;;;39.38;;
79241;SDS011;68670;48.720;9.118;2023-04-08T13:01:39;137.45;;;35.58;;
79241;SDS011;68670;48.720;9.118;2023-04-08T13:04:05;133.60;;;36.55;;
79241;SDS011;68670;48.720;9.118;2023-04-08T13:06:30;149.15;;;39.13;;
79241;SDS011;68670;48.720;9.118;2023-04-08T13:08:55;146.43;;;37.75;;
79241;SDS011;68670;48.720;9.118;2023-04-08T13:11:21;136.25;;;37.53;;
79241;SDS011;68670;48.720;9.118;2023-04-08T13:13:46;195.10;;;52.33;;
79241;SDS011;68670;48.720;9.118;2023-04-08T13:16:14;163.70;;;39.78;;
79241;SDS011;68670;48.720;9.118;2023-04-08T13:18:42;130.52;;;37.17;;
79241;SDS011;68670;48.720;9.118;2023-04-08T13:21:07;148.95;;;38.63;;
79241;SDS011;68670;48.720;9.118;2023-04-08T13:23:36;124.78;;;35.92;;
79241;SDS011;68670;48.720;9.118;2023-04-08T13:26:03;136.40;;;37.38;;
79241;SDS011;68670;48.720;9.118;2023-04-08T13:28:29;129.85;;;35.30;;
79241;SDS011;68670;48.720;9.118;2023-04-08T13:30:54;144.88;;;36.70;;
79241;SDS011;68670;48.720;9.118;2023-04-08T13:33:22;131.20;;;35.45;;
79241;SDS011;68670;48.720;9.118;2023-04-08T13:35:50;126.90;;;35.35;;
79241;SDS011;68670;48.720;9.118;2023-04-08T13:38:20;131.65;;;37.53;;
79241;SDS011;68670;48.720;9.118;2023-04-08T13:40:47;135.05;;;34.70;;
79241;SDS011;68670;48.720;9.118;2023-04-08T13:43:15;139.43;;;36.25;;
79241;SDS011;68670;48.720;9.118;2023-04-08T13:45:40;125.65;;;34.60;;
79241;SDS011;68670;48.720;9.118;2023-04-08T13:48:05;124.07;;;35.72;;
79241;SDS011;68670;48.720;9.118;2023-04-08T13:50:31;125.15;;;35.13;;
79241;SDS011;68670;48.720;9.118;2023-04-08T13:52:59;129.00;;;34.22;;
79241;SDS011;68670;48.720;9.118;2023-04-08T13:55:24;127.80;;;35.42;;
79241;SDS011;68670;48.720;9.118;2023-04-08T13:57:50;134.02;;;43.97;;
79241;SDS011;68670;48.720;9.118;2023-04-08T14:00:15;118.90;;;36.00;;
79241;SDS011;68670;48.720;9.118;2023-04-08T14:02:43;126.22;;;37.38;;
79241;SDS011;68670;48.720;9.118;2023-04-08T14:05:08;123.03;;;34.38;;
79241;SDS011;68670;48.720;9.118;2023-04-08T14:07:34;115.20;;;33.83;;
79241;SDS011;68670;48.720;9.118;2023-04-08T14:10:01;115.93;;;34.03;;
79241;SDS011;68670;48.720;9.118;2023-04-08T14:12:29;119.88;;;32.30;;
79241;SDS011;68670;48.720;9.118;2023-04-08T14:14:55;120.35;;;34.42;;
79241;SDS011;68670;48.720;9.118;2023-04-08T14:17:22;115.93;;;35.67;;
79241;SDS011;68670;48.720;9.118;2023-04-08T14:19:52;122.38;;;33.78;;
79241;SDS011;68670;48.720;9.118;2023-04-08T14:22:17;118.38;;;33.03;;
79241;SDS011;68670;48.720;9.118;2023-04-08T14:24:45;120.50;;;33.10;;
79241;SDS011;68670;48.720;9.118;2023-04-08T14:27:14;103.40;;;31.23;;
79241;SDS011;68670;48.720;9.118;2023-04-08T14:29:42;113.22;;;32.97;;
79241;SDS011;68670;48.720;9.118;2023-04-08T14:32:10;120.13;;;33.15;;
79241;SDS011;68670;48.720;9.118;2023-04-08T14:34:37;128.48;;;34.55;;
79241;SDS011;68670;48.720;9.118;2023-04-08T14:37:03;112.65;;;32.95;;
79241;SDS011;68670;48.720;9.118;2023-04-08T14:41:54;134.70;;;36.13;;
79241;SDS011;68670;48.720;9.118;2023-04-08T14:44:21;123.10;;;35.17;;
79241;SDS011;68670;48.720;9.118;2023-04-08T14:46:46;128.50;;;33.50;;
79241;SDS011;68670;48.720;9.118;2023-04-08T14:49:16;121.45;;;32.78;;
79241;SDS011;68670;48.720;9.118;2023-04-08T14:51:42;120.25;;;33.70;;
79241;SDS011;68670;48.720;9.118;2023-04-08T14:54:09;113.50;;;35.58;;
79241;SDS011;68670;48.720;9.118;2023-04-08T14:56:37;114.03;;;32.80;;
79241;SDS011;68670;48.720;9.118;2023-04-08T14:59:04;136.63;;;37.22;;
79241;SDS011;68670;48.720;9.118;2023-04-08T15:01:30;118.07;;;34.47;;
79241;SDS011;68670;48.720;9.118;2023-04-08T15:03:57;126.82;;;34.63;;
79241;SDS011;68670;48.720;9.118;2023-04-08T15:06:28;121.78;;;35.75;;
79241;SDS011;68670;48.720;9.118;2023-04-08T15:08:54;122.20;;;34.15;;
79241;SDS011;68670;48.720;9.118;2023-04-08T15:11:22;127.05;;;35.08;;
79241;SDS011;68670;48.720;9.118;2023-04-08T15:13:48;107.57;;;33.92;;
79241;SDS011;68670;48.720;9.118;2023-04-08T15:16:13;110.20;;;31.38;;
79241;SDS011;68670;48.720;9.118;2023-04-08T15:18:39;107.30;;;33.72;;
79241;SDS011;68670;48.720;9.118;2023-04-08T15:21:06;110.72;;;32.53;;
79241;SDS011;68670;48.720;9.118;2023-04-08T15:23:32;117.68;;;30.60;;
79241;SDS011;68670;48.720;9.118;2023-04-08T15:26:00;109.70;;;29.98;;
79241;SDS011;68670;48.720;9.118;2023-04-08T15:28:28;113.97;;;31.33;;
79241;SDS011;68670;48.720;9.118;2023-04-08T15:30:57;103.75;;;30.63;;
79241;SDS011;68670;48.720;9.118;2023-04-08T15:33:23;101.47;;;27.90;;
79241;SDS011;68670;48.720;9.118;2023-04-08T15:35:53;99.95;;;29.30;;
79241;SDS011;68670;48.720;9.118;2023-04-08T15:38:18;94.00;;;27.73;;
79241;SDS011;68670;48.720;9.118;2023-04-08T15:40:46;93.35;;;27.42;;
79241;SDS011;68670;48.720;9.118;2023-04-08T15:43:13;87.80;;;26.10;;
79241;SDS011;68670;48.720;9.118;2023-04-08T15:45:42;98.88;;;27.23;;
79241;SDS011;68670;48.720;9.118;2023-04-08T15:48:10;83.95;;;25.35;;
79241;SDS011;68670;48.720;9.118;2023-04-08T15:50:36;77.47;;;24.70;;
79241;SDS011;68670;48.720;9.118;2023-04-08T15:53:01;78.53;;;25.42;;
79241;SDS011;68670;48.720;9.118;2023-04-08T15:55:27;82.95;;;23.67;;
79241;SDS011;68670;48.720;9.118;2023-04-08T15:57:54;76.85;;;24.25;;
79241;SDS011;68670;48.720;9.118;2023-04-08T16:00:21;80.22;;;24.85;;
79241;SDS011;68670;48.720;9.118;2023-04-08T16:02:47;73.82;;;23.00;;
79241;SDS011;68670;48.720;9.118;2023-04-08T16:05:15;81.20;;;25.38;;
79241;SDS011;68670;48.720;9.118;2023-04-08T16:07:41;76.18;;;24.15;;
79241;SDS011;68670;48.720;9.118;2023-04-08T16:10:06;73.22;;;23.55;;
79241;SDS011;68670;48.720;9.118;2023-04-08T16:12:32;71.78;;;23.48;;
79241;SDS011;68670;48.720;9.118;2023-04-08T16:14:58;68.10;;;20.27;;
79241;SDS011;68670;48.720;9.118;2023-04-08T16:17:24;60.95;;;19.27;;
79241;SDS011;68670;48.720;9.118;2023-04-08T16:19:50;64.57;;;21.08;;
79241;SDS011;68670;48.720;9.118;2023-04-08T16:22:15;60.40;;;21.38;;
79241;SDS011;68670;48.720;9.118;2023-04-08T16:24:41;65.78;;;20.90;;
79241;SDS011;68670;48.720;9.118;2023-04-08T16:27:09;60.60;;;20.63;;
79241;SDS011;68670;48.720;9.118;2023-04-08T16:29:37;63.08;;;20.48;;
79241;SDS011;68670;48.720;9.118;2023-04-08T16:32:02;66.30;;;20.83;;
79241;SDS011;68670;48.720;9.118;2023-04-08T16:34:28;56.95;;;20.63;;
79241;SDS011;68670;48.720;9.118;2023-04-08T16:36:54;64.95;;;20.20;;
79241;SDS011;68670;48.720;9.118;2023-04-08T16:39:20;60.15;;;21.17;;
79241;SDS011;68670;48.720;9.118;2023-04-08T16:41:48;62.65;;;21.95;;
79241;SDS011;68670;48.720;9.118;2023-04-08T16:44:15;61.72;;;20.55;;
79241;SDS011;68670;48.720;9.118;2023-04-08T16:46:43;62.67;;;20.02;;
79241;SDS011;68670;48.720;9.118;2023-04-08T16:49:09;70.13;;;20.65;;
79241;SDS011;68670;48.720;9.118;2023-04-08T16:51:37;65.95;;;22.05;;
79241;SDS011;68670;48.720;9.118;2023-04-08T16:54:02;63.88;;;20.98;;
79241;SDS011;68670;48.720;9.118;2023-04-08T16:56:33;70.93;;;20.70;;
79241;SDS011;68670;48.720;9.118;2023-04-08T16:58:58;56.60;;;20.48;;
79241;SDS011;68670;48.720;9.118;2023-04-08T17:01:23;60.25;;;18.90;;
79241;SDS011;68670;48.720;9.118;2023-04-08T17:03:49;59.42;;;21.02;;
79241;SDS011;68670;48.720;9.118;2023-04-08T17:06:20;53.20;;;18.58;;
79241;SDS011;68670;48.720;9.118;2023-04-08T17:08:46;66.10;;;23.73;;
79241;SDS011;68670;48.720;9.118;2023-04-08T17:11:14;64.75;;;20.77;;
79241;SDS011;68670;48.720;9.118;2023-04-08T17:13:39;78.40;;;22.30;;
79241;SDS011;68670;48.720;9.118;2023-04-08T17:16:11;61.58;;;23.30;;
79241;SDS011;68670;48.720;9.118;2023-04-08T17:18:38;60.67;;;22.27;;
79241;SDS011;68670;48.720;9.118;2023-04-08T17:21:08;66.28;;;23.27;;
79241;SDS011;68670;48.720;9.118;2023-04-08T17:23:34;63.15;;;23.35;;